sensor_id;sensor_type;location;lat;lon;timestamp;P1;durP1;ratioP1;P2;durP2;ratioP2
53549;SDS011;67273;52.914;-0.982;2023-03-25T00:01:07;4.13;;;1.55;;
53549;SDS011;67273;52.914;-0.982;2023-03-25T00:03:39;4.97;;;1.85;;
53549;SDS011;67273;52.914;-0.982;2023-03-25T00:06:06;5.20;;;2.20;;
53549;SDS011;67273;52.914;-0.982;2023-03-25T00:08:33;6.43;;;1.98;;
53549;SDS011;67273;52.914;-0.982;2023-03-25T00:11:00;4.50;;;1.85;;
53549;SDS011;67273;52.914;-0.982;2023-03-25T00:13:30;4.85;;;1.80;;
53549;SDS011;67273;52.914;-0.982;2023-03-25T00:15:56;3.85;;;1.85;;
53549;SDS011;67273;52.914;-0.982;2023-03-25T00:18:23;5.22;;;1.92;;
53549;SDS011;67273;52.914;-0.982;2023-03-25T00:20:50;4.25;;;1.73;;
53549;SDS011;67273;52.914;-0.982;2023-03-25T00:23:17;4.25;;;1.70;;
53549;SDS011;67273;52.914;-0.982;2023-03-25T00:25:44;3.67;;;1.77;;
53549;SDS011;67273;52.914;-0.982;2023-03-25T00:28:10;4.38;;;1.80;;
53549;SDS011;67273;52.914;-0.982;2023-03-25T00:30:39;3.35;;;1.63;;
53549;SDS011;67273;52.914;-0.982;2023-03-25T00:33:06;3.85;;;1.60;;
53549;SDS011;67273;52.914;-0.982;2023-03-25T00:35:35;3.95;;;1.80;;
53549;SDS011;67273;52.914;-0.982;2023-03-25T00:38:01;4.00;;;1.85;;
53549;SDS011;67273;52.914;-0.982;2023-03-25T00:40:28;3.25;;;1.67;;
53549;SDS011;67273;52.914;-0.982;2023-03-25T00:42:55;4.18;;;1.75;;
53549;SDS011;67273;52.914;-0.982;2023-03-25T00:45:21;4.35;;;1.70;;
53549;SDS011;67273;52.914;-0.982;2023-03-25T00:47:51;3.60;;;1.73;;
53549;SDS011;67273;52.914;-0.982;2023-03-25T00:50:17;5.28;;;2.05;;
53549;SDS011;67273;52.914;-0.982;2023-03-25T00:52:43;3.70;;;1.65;;
53549;SDS011;67273;52.914;-0.982;2023-03-25T00:55:08;3.60;;;1.67;;
53549;SDS011;67273;52.914;-0.982;2023-03-25T00:57:35;4.88;;;1.95;;
53549;SDS011;67273;52.914;-0.982;2023-03-25T01:00:01;4.82;;;1.95;;
53549;SDS011;67273;52.914;-0.982;2023-03-25T01:02:28;5.15;;;1.85;;
53549;SDS011;67273;52.914;-0.982;2023-03-25T01:04:56;4.25;;;1.90;;
53549;SDS011;67273;52.914;-0.982;2023-03-25T01:07:24;3.92;;;1.80;;
53549;SDS011;67273;52.914;-0.982;2023-03-25T01:09:53;4.13;;;1.98;;
53549;SDS011;67273;52.914;-0.982;2023-03-25T01:12:20;3.30;;;1.70;;
53549;SDS011;67273;52.914;-0.982;2023-03-25T01:14:46;3.83;;;1.73;;
53549;SDS011;67273;52.914;-0.982;2023-03-25T01:17:13;3.88;;;1.70;;
53549;SDS011;67273;52.914;-0.982;2023-03-25T01:19:39;3.55;;;1.75;;
53549;SDS011;67273;52.914;-0.982;2023-03-25T01:22:07;5.15;;;1.98;;
53549;SDS011;67273;52.914;-0.982;2023-03-25T01:24:32;3.53;;;1.70;;
53549;SDS011;67273;52.914;-0.982;2023-03-25T01:26:58;3.67;;;1.60;;
53549;SDS011;67273;52.914;-0.982;2023-03-25T01:29:26;3.72;;;1.80;;
53549;SDS011;67273;52.914;-0.982;2023-03-25T01:31:53;4.00;;;1.80;;
53549;SDS011;67273;52.914;-0.982;2023-03-25T01:34:20;3.97;;;1.80;;
53549;SDS011;67273;52.914;-0.982;2023-03-25T01:36:46;4.40;;;1.85;;
53549;SDS011;67273;52.914;-0.982;2023-03-25T01:39:15;4.00;;;1.77;;
53549;SDS011;67273;52.914;-0.982;2023-03-25T01:41:43;4.60;;;2.05;;
53549;SDS011;67273;52.914;-0.982;2023-03-25T01:47:10;3.42;;;1.80;;
53549;SDS011;67273;52.914;-0.982;2023-03-25T01:49:37;4.43;;;1.83;;
53549;SDS011;67273;52.914;-0.982;2023-03-25T01:52:09;4.63;;;2.00;;
53549;SDS011;67273;52.914;-0.982;2023-03-25T01:54:39;4.07;;;1.80;;
53549;SDS011;67273;52.914;-0.982;2023-03-25T01:57:06;4.00;;;1.65;;
53549;SDS011;67273;52.914;-0.982;2023-03-25T01:59:34;3.25;;;1.52;;
53549;SDS011;67273;52.914;-0.982;2023-03-25T02:02:04;4.47;;;1.95;;
53549;SDS011;67273;52.914;-0.982;2023-03-25T02:04:46;3.05;;;1.50;;
53549;SDS011;67273;52.914;-0.982;2023-03-25T02:07:30;4.78;;;1.90;;
53549;SDS011;67273;52.914;-0.982;2023-03-25T02:10:03;4.20;;;1.55;;
53549;SDS011;67273;52.914;-0.982;2023-03-25T02:12:33;4.68;;;2.00;;
53549;SDS011;67273;52.914;-0.982;2023-03-25T02:15:15;4.65;;;1.75;;
53549;SDS011;67273;52.914;-0.982;2023-03-25T02:17:53;3.47;;;1.73;;
53549;SDS011;67273;52.914;-0.982;2023-03-25T02:20:40;4.18;;;1.98;;
53549;SDS011;67273;52.914;-0.982;2023-03-25T02:23:44;3.95;;;1.70;;
53549;SDS011;67273;52.914;-0.982;2023-03-25T02:33:08;4.38;;;1.80;;
53549;SDS011;67273;52.914;-0.982;2023-03-25T02:35:57;4.10;;;1.60;;
53549;SDS011;67273;52.914;-0.982;2023-03-25T02:38:41;4.18;;;1.65;;
53549;SDS011;67273;52.914;-0.982;2023-03-25T02:41:13;3.85;;;1.75;;
53549;SDS011;67273;52.914;-0.982;2023-03-25T02:43:48;3.47;;;1.55;;
53549;SDS011;67273;52.914;-0.982;2023-03-25T02:46:20;3.30;;;1.58;;
53549;SDS011;67273;52.914;-0.982;2023-03-25T02:48:49;4.78;;;1.92;;
53549;SDS011;67273;52.914;-0.982;2023-03-25T02:51:21;3.03;;;1.55;;
53549;SDS011;67273;52.914;-0.982;2023-03-25T02:53:53;3.58;;;1.58;;
53549;SDS011;67273;52.914;-0.982;2023-03-25T02:56:22;5.05;;;1.80;;
53549;SDS011;67273;52.914;-0.982;2023-03-25T02:58:51;2.20;;;1.30;;
53549;SDS011;67273;52.914;-0.982;2023-03-25T03:01:19;2.97;;;1.40;;
53549;SDS011;67273;52.914;-0.982;2023-03-25T03:03:47;2.60;;;1.40;;
53549;SDS011;67273;52.914;-0.982;2023-03-25T03:06:14;3.22;;;1.55;;
53549;SDS011;67273;52.914;-0.982;2023-03-25T03:08:51;3.42;;;1.55;;
53549;SDS011;67273;52.914;-0.982;2023-03-25T03:11:31;4.28;;;1.70;;
53549;SDS011;67273;52.914;-0.982;2023-03-25T03:14:20;2.92;;;1.50;;
53549;SDS011;67273;52.914;-0.982;2023-03-25T03:17:04;3.58;;;1.50;;
53549;SDS011;67273;52.914;-0.982;2023-03-25T03:19:39;2.97;;;1.20;;
53549;SDS011;67273;52.914;-0.982;2023-03-25T03:22:19;4.47;;;1.50;;
53549;SDS011;67273;52.914;-0.982;2023-03-25T03:25:07;2.35;;;1.38;;
53549;SDS011;67273;52.914;-0.982;2023-03-25T03:27:48;2.88;;;1.30;;
53549;SDS011;67273;52.914;-0.982;2023-03-25T03:30:25;2.47;;;1.40;;
53549;SDS011;67273;52.914;-0.982;2023-03-25T03:33:02;3.40;;;1.35;;
53549;SDS011;67273;52.914;-0.982;2023-03-25T03:35:44;4.25;;;1.60;;
53549;SDS011;67273;52.914;-0.982;2023-03-25T03:38:20;3.03;;;1.45;;
53549;SDS011;67273;52.914;-0.982;2023-03-25T03:40:57;4.72;;;1.45;;
53549;SDS011;67273;52.914;-0.982;2023-03-25T03:43:32;3.58;;;1.35;;
53549;SDS011;67273;52.914;-0.982;2023-03-25T03:46:14;2.55;;;1.30;;
53549;SDS011;67273;52.914;-0.982;2023-03-25T03:48:50;3.08;;;1.40;;
53549;SDS011;67273;52.914;-0.982;2023-03-25T03:51:28;2.95;;;1.40;;
53549;SDS011;67273;52.914;-0.982;2023-03-25T03:54:03;3.70;;;1.35;;
53549;SDS011;67273;52.914;-0.982;2023-03-25T03:56:41;3.08;;;1.42;;
53549;SDS011;67273;52.914;-0.982;2023-03-25T03:59:16;2.80;;;1.35;;
53549;SDS011;67273;52.914;-0.982;2023-03-25T04:01:57;1.70;;;1.08;;
53549;SDS011;67273;52.914;-0.982;2023-03-25T04:04:33;2.50;;;1.30;;
53549;SDS011;67273;52.914;-0.982;2023-03-25T04:07:07;3.40;;;1.30;;
53549;SDS011;67273;52.914;-0.982;2023-03-25T04:09:43;2.85;;;1.58;;
53549;SDS011;67273;52.914;-0.982;2023-03-25T04:12:27;2.03;;;1.23;;
53549;SDS011;67273;52.914;-0.982;2023-03-25T04:15:01;3.42;;;1.35;;
53549;SDS011;67273;52.914;-0.982;2023-03-25T04:17:35;2.33;;;1.02;;
53549;SDS011;67273;52.914;-0.982;2023-03-25T04:20:09;3.03;;;1.35;;
53549;SDS011;67273;52.914;-0.982;2023-03-25T04:22:54;2.03;;;1.08;;
53549;SDS011;67273;52.914;-0.982;2023-03-25T04:25:26;3.45;;;1.17;;
53549;SDS011;67273;52.914;-0.982;2023-03-25T04:28:03;2.55;;;1.20;;
53549;SDS011;67273;52.914;-0.982;2023-03-25T04:30:36;3.08;;;1.27;;
53549;SDS011;67273;52.914;-0.982;2023-03-25T04:33:09;1.77;;;0.93;;
53549;SDS011;67273;52.914;-0.982;2023-03-25T04:35:45;2.42;;;1.23;;
53549;SDS011;67273;52.914;-0.982;2023-03-25T04:38:18;2.78;;;1.27;;
53549;SDS011;67273;52.914;-0.982;2023-03-25T04:40:51;2.58;;;1.20;;
53549;SDS011;67273;52.914;-0.982;2023-03-25T04:43:24;1.83;;;1.20;;
53549;SDS011;67273;52.914;-0.982;2023-03-25T04:45:56;2.78;;;1.17;;
53549;SDS011;67273;52.914;-0.982;2023-03-25T04:48:35;3.00;;;1.15;;
53549;SDS011;67273;52.914;-0.982;2023-03-25T04:51:09;2.22;;;1.02;;
53549;SDS011;67273;52.914;-0.982;2023-03-25T04:53:40;2.25;;;1.20;;
53549;SDS011;67273;52.914;-0.982;2023-03-25T04:56:15;2.30;;;1.20;;
53549;SDS011;67273;52.914;-0.982;2023-03-25T04:58:50;2.13;;;1.23;;
53549;SDS011;67273;52.914;-0.982;2023-03-25T05:01:21;2.40;;;1.20;;
53549;SDS011;67273;52.914;-0.982;2023-03-25T05:04:04;2.08;;;1.08;;
53549;SDS011;67273;52.914;-0.982;2023-03-25T05:06:41;2.83;;;1.30;;
53549;SDS011;67273;52.914;-0.982;2023-03-25T05:09:17;3.03;;;1.30;;
53549;SDS011;67273;52.914;-0.982;2023-03-25T05:11:53;1.83;;;0.88;;
53549;SDS011;67273;52.914;-0.982;2023-03-25T05:14:27;2.28;;;0.95;;
53549;SDS011;67273;52.914;-0.982;2023-03-25T05:17:02;1.15;;;1.00;;
53549;SDS011;67273;52.914;-0.982;2023-03-25T05:19:35;2.65;;;1.30;;
53549;SDS011;67273;52.914;-0.982;2023-03-25T05:22:11;2.85;;;1.17;;
53549;SDS011;67273;52.914;-0.982;2023-03-25T05:24:46;1.48;;;0.90;;
53549;SDS011;67273;52.914;-0.982;2023-03-25T05:27:20;2.25;;;1.00;;
53549;SDS011;67273;52.914;-0.982;2023-03-25T05:29:58;1.67;;;0.82;;
53549;SDS011;67273;52.914;-0.982;2023-03-25T05:32:25;1.25;;;0.95;;
53549;SDS011;67273;52.914;-0.982;2023-03-25T05:34:54;1.42;;;0.95;;
53549;SDS011;67273;52.914;-0.982;2023-03-25T05:37:20;1.45;;;0.93;;
53549;SDS011;67273;52.914;-0.982;2023-03-25T05:39:47;3.03;;;1.27;;
53549;SDS011;67273;52.914;-0.982;2023-03-25T05:42:17;2.10;;;1.00;;
53549;SDS011;67273;52.914;-0.982;2023-03-25T05:44:51;1.85;;;0.80;;
53549;SDS011;67273;52.914;-0.982;2023-03-25T05:47:22;1.75;;;1.00;;
53549;SDS011;67273;52.914;-0.982;2023-03-25T05:50:02;1.75;;;0.80;;
53549;SDS011;67273;52.914;-0.982;2023-03-25T05:52:35;1.80;;;1.00;;
53549;SDS011;67273;52.914;-0.982;2023-03-25T05:55:10;2.65;;;1.38;;
53549;SDS011;67273;52.914;-0.982;2023-03-25T05:57:40;2.35;;;1.10;;
53549;SDS011;67273;52.914;-0.982;2023-03-25T06:00:09;1.65;;;1.00;;
53549;SDS011;67273;52.914;-0.982;2023-03-25T06:02:42;2.90;;;1.02;;
53549;SDS011;67273;52.914;-0.982;2023-03-25T06:05:14;2.35;;;1.20;;
53549;SDS011;67273;52.914;-0.982;2023-03-25T06:07:43;2.38;;;1.17;;
53549;SDS011;67273;52.914;-0.982;2023-03-25T06:10:14;1.52;;;0.88;;
53549;SDS011;67273;52.914;-0.982;2023-03-25T06:12:46;2.70;;;1.38;;
53549;SDS011;67273;52.914;-0.982;2023-03-25T06:15:16;1.60;;;0.90;;
53549;SDS011;67273;52.914;-0.982;2023-03-25T06:17:56;2.38;;;1.05;;
53549;SDS011;67273;52.914;-0.982;2023-03-25T06:20:23;2.25;;;1.10;;
53549;SDS011;67273;52.914;-0.982;2023-03-25T06:22:49;2.53;;;1.27;;
53549;SDS011;67273;52.914;-0.982;2023-03-25T06:25:16;2.58;;;1.20;;
53549;SDS011;67273;52.914;-0.982;2023-03-25T06:27:44;1.80;;;1.00;;
53549;SDS011;67273;52.914;-0.982;2023-03-25T06:30:13;2.08;;;1.10;;
53549;SDS011;67273;52.914;-0.982;2023-03-25T06:32:41;1.45;;;0.90;;
53549;SDS011;67273;52.914;-0.982;2023-03-25T06:35:09;2.30;;;1.02;;
53549;SDS011;67273;52.914;-0.982;2023-03-25T06:37:36;2.55;;;1.10;;
53549;SDS011;67273;52.914;-0.982;2023-03-25T06:40:16;1.90;;;0.88;;
53549;SDS011;67273;52.914;-0.982;2023-03-25T06:42:51;1.75;;;1.25;;
53549;SDS011;67273;52.914;-0.982;2023-03-25T06:45:37;2.05;;;1.10;;
53549;SDS011;67273;52.914;-0.982;2023-03-25T06:48:32;1.63;;;0.90;;
53549;SDS011;67273;52.914;-0.982;2023-03-25T06:51:00;2.85;;;1.08;;
53549;SDS011;67273;52.914;-0.982;2023-03-25T06:53:26;2.33;;;1.00;;
53549;SDS011;67273;52.914;-0.982;2023-03-25T06:55:51;1.98;;;1.08;;
53549;SDS011;67273;52.914;-0.982;2023-03-25T06:58:17;2.28;;;1.10;;
53549;SDS011;67273;52.914;-0.982;2023-03-25T07:00:43;1.92;;;1.10;;
53549;SDS011;67273;52.914;-0.982;2023-03-25T07:03:11;1.23;;;0.82;;
53549;SDS011;67273;52.914;-0.982;2023-03-25T07:05:37;2.60;;;0.90;;
53549;SDS011;67273;52.914;-0.982;2023-03-25T07:08:06;2.50;;;1.10;;
53549;SDS011;67273;52.914;-0.982;2023-03-25T07:10:33;1.50;;;0.98;;
53549;SDS011;67273;52.914;-0.982;2023-03-25T07:12:58;2.75;;;1.25;;
53549;SDS011;67273;52.914;-0.982;2023-03-25T07:15:24;2.08;;;1.00;;
53549;SDS011;67273;52.914;-0.982;2023-03-25T07:17:50;3.00;;;1.00;;
53549;SDS011;67273;52.914;-0.982;2023-03-25T07:20:17;2.00;;;1.15;;
53549;SDS011;67273;52.914;-0.982;2023-03-25T07:22:43;3.88;;;1.00;;
53549;SDS011;67273;52.914;-0.982;2023-03-25T07:25:11;2.15;;;0.93;;
53549;SDS011;67273;52.914;-0.982;2023-03-25T07:27:37;2.33;;;1.15;;
53549;SDS011;67273;52.914;-0.982;2023-03-25T07:30:07;2.15;;;1.02;;
53549;SDS011;67273;52.914;-0.982;2023-03-25T07:32:34;2.20;;;1.02;;
53549;SDS011;67273;52.914;-0.982;2023-03-25T07:35:00;1.83;;;0.93;;
53549;SDS011;67273;52.914;-0.982;2023-03-25T07:37:25;1.02;;;0.63;;
53549;SDS011;67273;52.914;-0.982;2023-03-25T07:39:51;2.33;;;1.10;;
53549;SDS011;67273;52.914;-0.982;2023-03-25T07:42:18;1.88;;;0.90;;
53549;SDS011;67273;52.914;-0.982;2023-03-25T07:45:07;1.55;;;1.10;;
53549;SDS011;67273;52.914;-0.982;2023-03-25T07:47:36;1.10;;;0.80;;
53549;SDS011;67273;52.914;-0.982;2023-03-25T07:50:01;1.60;;;0.98;;
53549;SDS011;67273;52.914;-0.982;2023-03-25T07:52:27;2.15;;;1.00;;
53549;SDS011;67273;52.914;-0.982;2023-03-25T07:54:53;1.65;;;0.88;;
53549;SDS011;67273;52.914;-0.982;2023-03-25T07:57:20;1.63;;;0.88;;
53549;SDS011;67273;52.914;-0.982;2023-03-25T07:59:46;2.00;;;0.95;;
53549;SDS011;67273;52.914;-0.982;2023-03-25T08:02:12;2.13;;;1.10;;
53549;SDS011;67273;52.914;-0.982;2023-03-25T08:04:38;2.05;;;1.02;;
53549;SDS011;67273;52.914;-0.982;2023-03-25T08:07:04;1.92;;;1.00;;
53549;SDS011;67273;52.914;-0.982;2023-03-25T08:09:30;2.90;;;1.20;;
53549;SDS011;67273;52.914;-0.982;2023-03-25T08:11:56;2.03;;;0.93;;
53549;SDS011;67273;52.914;-0.982;2023-03-25T08:14:24;2.25;;;1.00;;
53549;SDS011;67273;52.914;-0.982;2023-03-25T08:16:50;4.32;;;1.20;;
53549;SDS011;67273;52.914;-0.982;2023-03-25T08:19:15;2.65;;;1.00;;
53549;SDS011;67273;52.914;-0.982;2023-03-25T08:21:42;3.22;;;1.25;;
53549;SDS011;67273;52.914;-0.982;2023-03-25T08:24:07;5.90;;;1.05;;
53549;SDS011;67273;52.914;-0.982;2023-03-25T08:26:35;2.35;;;0.93;;
53549;SDS011;67273;52.914;-0.982;2023-03-25T08:29:03;2.65;;;1.10;;
53549;SDS011;67273;52.914;-0.982;2023-03-25T08:31:30;6.22;;;0.90;;
53549;SDS011;67273;52.914;-0.982;2023-03-25T08:33:57;2.78;;;1.00;;
53549;SDS011;67273;52.914;-0.982;2023-03-25T08:36:23;5.20;;;1.10;;
53549;SDS011;67273;52.914;-0.982;2023-03-25T08:38:49;1.90;;;0.77;;
53549;SDS011;67273;52.914;-0.982;2023-03-25T08:41:15;1.05;;;0.70;;
53549;SDS011;67273;52.914;-0.982;2023-03-25T08:43:42;2.38;;;0.90;;
53549;SDS011;67273;52.914;-0.982;2023-03-25T08:46:08;1.83;;;0.75;;
53549;SDS011;67273;52.914;-0.982;2023-03-25T08:48:35;2.55;;;0.90;;
53549;SDS011;67273;52.914;-0.982;2023-03-25T08:51:01;1.95;;;0.80;;
53549;SDS011;67273;52.914;-0.982;2023-03-25T08:53:27;3.63;;;1.00;;
53549;SDS011;67273;52.914;-0.982;2023-03-25T08:55:53;1.88;;;0.75;;
53549;SDS011;67273;52.914;-0.982;2023-03-25T08:58:21;0.88;;;0.60;;
53549;SDS011;67273;52.914;-0.982;2023-03-25T09:00:47;1.70;;;0.88;;
53549;SDS011;67273;52.914;-0.982;2023-03-25T09:03:13;2.67;;;0.85;;
53549;SDS011;67273;52.914;-0.982;2023-03-25T09:05:41;1.50;;;0.68;;
53549;SDS011;67273;52.914;-0.982;2023-03-25T09:08:08;2.58;;;0.90;;
53549;SDS011;67273;52.914;-0.982;2023-03-25T09:10:33;1.23;;;0.80;;
53549;SDS011;67273;52.914;-0.982;2023-03-25T09:13:00;2.00;;;0.90;;
53549;SDS011;67273;52.914;-0.982;2023-03-25T09:15:25;2.53;;;0.80;;
53549;SDS011;67273;52.914;-0.982;2023-03-25T09:17:51;1.05;;;0.75;;
53549;SDS011;67273;52.914;-0.982;2023-03-25T09:20:17;1.92;;;0.93;;
53549;SDS011;67273;52.914;-0.982;2023-03-25T09:22:44;1.38;;;0.88;;
53549;SDS011;67273;52.914;-0.982;2023-03-25T09:25:10;2.17;;;0.60;;
53549;SDS011;67273;52.914;-0.982;2023-03-25T09:27:36;2.03;;;0.90;;
53549;SDS011;67273;52.914;-0.982;2023-03-25T09:30:03;1.48;;;0.90;;
53549;SDS011;67273;52.914;-0.982;2023-03-25T09:32:30;1.35;;;0.63;;
53549;SDS011;67273;52.914;-0.982;2023-03-25T09:34:56;1.65;;;0.70;;
53549;SDS011;67273;52.914;-0.982;2023-03-25T09:37:22;3.33;;;0.80;;
53549;SDS011;67273;52.914;-0.982;2023-03-25T09:39:49;2.38;;;1.02;;
53549;SDS011;67273;52.914;-0.982;2023-03-25T09:45:04;1.77;;;0.80;;
53549;SDS011;67273;52.914;-0.982;2023-03-25T09:47:40;1.08;;;0.52;;
53549;SDS011;67273;52.914;-0.982;2023-03-25T09:50:17;1.17;;;0.70;;
53549;SDS011;67273;52.914;-0.982;2023-03-25T09:52:46;1.20;;;0.60;;
53549;SDS011;67273;52.914;-0.982;2023-03-25T09:55:19;1.47;;;0.80;;
53549;SDS011;67273;52.914;-0.982;2023-03-25T09:57:50;0.73;;;0.60;;
53549;SDS011;67273;52.914;-0.982;2023-03-25T10:00:24;0.90;;;0.73;;
53549;SDS011;67273;52.914;-0.982;2023-03-25T10:02:52;0.70;;;0.65;;
53549;SDS011;67273;52.914;-0.982;2023-03-25T10:08:10;3.30;;;0.90;;
53549;SDS011;67273;52.914;-0.982;2023-03-25T10:10:50;1.50;;;0.77;;
53549;SDS011;67273;52.914;-0.982;2023-03-25T10:15:52;1.90;;;0.98;;
53549;SDS011;67273;52.914;-0.982;2023-03-25T10:21:28;0.50;;;0.43;;
53549;SDS011;67273;52.914;-0.982;2023-03-25T10:24:05;1.67;;;0.88;;
53549;SDS011;67273;52.914;-0.982;2023-03-25T10:26:44;1.70;;;0.77;;
53549;SDS011;67273;52.914;-0.982;2023-03-25T10:29:14;1.13;;;0.68;;
53549;SDS011;67273;52.914;-0.982;2023-03-25T10:31:55;0.93;;;0.65;;
53549;SDS011;67273;52.914;-0.982;2023-03-25T10:34:26;2.35;;;0.77;;
53549;SDS011;67273;52.914;-0.982;2023-03-25T10:36:58;1.65;;;0.60;;
53549;SDS011;67273;52.914;-0.982;2023-03-25T10:39:29;2.17;;;0.80;;
53549;SDS011;67273;52.914;-0.982;2023-03-25T10:42:13;1.42;;;0.90;;
53549;SDS011;67273;52.914;-0.982;2023-03-25T10:44:44;1.02;;;0.65;;
53549;SDS011;67273;52.914;-0.982;2023-03-25T10:47:11;1.67;;;0.73;;
53549;SDS011;67273;52.914;-0.982;2023-03-25T10:49:42;1.67;;;0.80;;
53549;SDS011;67273;52.914;-0.982;2023-03-25T10:52:11;0.80;;;0.55;;
53549;SDS011;67273;52.914;-0.982;2023-03-25T10:54:38;1.58;;;0.85;;
53549;SDS011;67273;52.914;-0.982;2023-03-25T10:57:10;2.17;;;0.80;;
53549;SDS011;67273;52.914;-0.982;2023-03-25T10:59:43;1.55;;;0.85;;
53549;SDS011;67273;52.914;-0.982;2023-03-25T11:02:12;1.38;;;0.75;;
53549;SDS011;67273;52.914;-0.982;2023-03-25T11:04:42;1.70;;;0.70;;
53549;SDS011;67273;52.914;-0.982;2023-03-25T11:07:13;0.90;;;0.68;;
53549;SDS011;67273;52.914;-0.982;2023-03-25T11:09:43;2.30;;;0.82;;
53549;SDS011;67273;52.914;-0.982;2023-03-25T11:12:12;0.60;;;0.60;;
53549;SDS011;67273;52.914;-0.982;2023-03-25T11:14:42;1.60;;;0.80;;
53549;SDS011;67273;52.914;-0.982;2023-03-25T11:17:10;0.50;;;0.50;;
53549;SDS011;67273;52.914;-0.982;2023-03-25T11:19:41;1.00;;;0.65;;
53549;SDS011;67273;52.914;-0.982;2023-03-25T11:22:12;1.48;;;0.90;;
53549;SDS011;67273;52.914;-0.982;2023-03-25T11:24:43;1.55;;;0.70;;
53549;SDS011;67273;52.914;-0.982;2023-03-25T11:27:17;1.67;;;0.80;;
53549;SDS011;67273;52.914;-0.982;2023-03-25T11:29:50;1.98;;;0.77;;
53549;SDS011;67273;52.914;-0.982;2023-03-25T11:32:22;0.70;;;0.45;;
53549;SDS011;67273;52.914;-0.982;2023-03-25T11:34:56;0.95;;;0.68;;
53549;SDS011;67273;52.914;-0.982;2023-03-25T11:37:25;1.58;;;0.70;;
53549;SDS011;67273;52.914;-0.982;2023-03-25T11:39:56;1.52;;;0.80;;
53549;SDS011;67273;52.914;-0.982;2023-03-25T11:42:32;1.08;;;0.68;;
53549;SDS011;67273;52.914;-0.982;2023-03-25T11:45:03;1.88;;;0.75;;
53549;SDS011;67273;52.914;-0.982;2023-03-25T11:47:31;2.42;;;0.80;;
53549;SDS011;67273;52.914;-0.982;2023-03-25T11:49:58;1.67;;;0.75;;
53549;SDS011;67273;52.914;-0.982;2023-03-25T11:52:26;1.65;;;0.70;;
53549;SDS011;67273;52.914;-0.982;2023-03-25T11:55:00;1.20;;;0.70;;
53549;SDS011;67273;52.914;-0.982;2023-03-25T11:57:27;1.88;;;0.50;;
53549;SDS011;67273;52.914;-0.982;2023-03-25T12:00:01;1.40;;;0.80;;
53549;SDS011;67273;52.914;-0.982;2023-03-25T12:02:37;1.52;;;0.77;;
53549;SDS011;67273;52.914;-0.982;2023-03-25T12:05:09;0.60;;;0.50;;
53549;SDS011;67273;52.914;-0.982;2023-03-25T12:07:39;1.70;;;0.82;;
53549;SDS011;67273;52.914;-0.982;2023-03-25T12:10:06;1.15;;;0.90;;
53549;SDS011;67273;52.914;-0.982;2023-03-25T12:12:42;2.15;;;0.60;;
53549;SDS011;67273;52.914;-0.982;2023-03-25T12:15:20;1.48;;;0.95;;
53549;SDS011;67273;52.914;-0.982;2023-03-25T12:17:52;1.33;;;0.90;;
53549;SDS011;67273;52.914;-0.982;2023-03-25T12:20:27;1.02;;;0.70;;
53549;SDS011;67273;52.914;-0.982;2023-03-25T12:22:59;1.33;;;0.80;;
53549;SDS011;67273;52.914;-0.982;2023-03-25T12:25:33;2.53;;;0.95;;
53549;SDS011;67273;52.914;-0.982;2023-03-25T12:28:10;1.52;;;0.75;;
53549;SDS011;67273;52.914;-0.982;2023-03-25T12:31:05;2.03;;;0.63;;
53549;SDS011;67273;52.914;-0.982;2023-03-25T12:33:41;1.35;;;0.80;;
53549;SDS011;67273;52.914;-0.982;2023-03-25T12:36:24;1.17;;;0.75;;
53549;SDS011;67273;52.914;-0.982;2023-03-25T12:39:00;1.75;;;0.73;;
53549;SDS011;67273;52.914;-0.982;2023-03-25T12:41:41;0.95;;;0.75;;
53549;SDS011;67273;52.914;-0.982;2023-03-25T12:44:18;1.80;;;0.95;;
53549;SDS011;67273;52.914;-0.982;2023-03-25T12:47:00;1.17;;;0.90;;
53549;SDS011;67273;52.914;-0.982;2023-03-25T12:52:45;0.95;;;0.52;;
53549;SDS011;67273;52.914;-0.982;2023-03-25T12:55:30;1.83;;;0.70;;
53549;SDS011;67273;52.914;-0.982;2023-03-25T12:58:11;1.45;;;0.70;;
53549;SDS011;67273;52.914;-0.982;2023-03-25T13:00:54;1.33;;;0.80;;
53549;SDS011;67273;52.914;-0.982;2023-03-25T13:03:41;0.70;;;0.60;;
53549;SDS011;67273;52.914;-0.982;2023-03-25T13:06:19;1.55;;;0.98;;
53549;SDS011;67273;52.914;-0.982;2023-03-25T13:08:55;1.25;;;0.80;;
53549;SDS011;67273;52.914;-0.982;2023-03-25T13:11:26;1.60;;;0.82;;
53549;SDS011;67273;52.914;-0.982;2023-03-25T13:14:00;1.73;;;0.93;;
53549;SDS011;67273;52.914;-0.982;2023-03-25T13:16:32;1.63;;;0.88;;
53549;SDS011;67273;52.914;-0.982;2023-03-25T13:19:02;1.13;;;0.70;;
53549;SDS011;67273;52.914;-0.982;2023-03-25T13:21:34;1.35;;;0.80;;
53549;SDS011;67273;52.914;-0.982;2023-03-25T13:24:04;1.15;;;0.75;;
53549;SDS011;67273;52.914;-0.982;2023-03-25T13:26:34;1.02;;;0.60;;
53549;SDS011;67273;52.914;-0.982;2023-03-25T13:29:04;1.55;;;0.98;;
53549;SDS011;67273;52.914;-0.982;2023-03-25T13:31:38;1.65;;;0.88;;
53549;SDS011;67273;52.914;-0.982;2023-03-25T13:34:13;1.50;;;0.80;;
53549;SDS011;67273;52.914;-0.982;2023-03-25T13:36:49;1.20;;;0.70;;
53549;SDS011;67273;52.914;-0.982;2023-03-25T13:39:22;1.88;;;0.80;;
53549;SDS011;67273;52.914;-0.982;2023-03-25T13:41:52;1.60;;;0.80;;
53549;SDS011;67273;52.914;-0.982;2023-03-25T13:44:24;1.50;;;0.80;;
53549;SDS011;67273;52.914;-0.982;2023-03-25T13:46:54;0.90;;;0.63;;
53549;SDS011;67273;52.914;-0.982;2023-03-25T13:49:27;1.85;;;0.98;;
53549;SDS011;67273;52.914;-0.982;2023-03-25T13:51:57;1.95;;;0.75;;
53549;SDS011;67273;52.914;-0.982;2023-03-25T13:54:25;1.33;;;0.85;;
53549;SDS011;67273;52.914;-0.982;2023-03-25T13:57:00;1.33;;;0.70;;
53549;SDS011;67273;52.914;-0.982;2023-03-25T14:02:44;0.95;;;0.70;;
53549;SDS011;67273;52.914;-0.982;2023-03-25T14:05:50;1.00;;;0.70;;
53549;SDS011;67273;52.914;-0.982;2023-03-25T14:08:38;0.85;;;0.70;;
53549;SDS011;67273;52.914;-0.982;2023-03-25T14:11:24;0.73;;;0.52;;
53549;SDS011;67273;52.914;-0.982;2023-03-25T14:13:53;0.85;;;0.68;;
53549;SDS011;67273;52.914;-0.982;2023-03-25T14:16:23;1.02;;;0.70;;
53549;SDS011;67273;52.914;-0.982;2023-03-25T14:18:52;0.70;;;0.50;;
53549;SDS011;67273;52.914;-0.982;2023-03-25T14:21:27;0.80;;;0.80;;
53549;SDS011;67273;52.914;-0.982;2023-03-25T14:24:00;1.73;;;0.75;;
53549;SDS011;67273;52.914;-0.982;2023-03-25T14:26:29;1.30;;;0.70;;
53549;SDS011;67273;52.914;-0.982;2023-03-25T14:28:59;0.52;;;0.50;;
53549;SDS011;67273;52.914;-0.982;2023-03-25T14:31:30;0.70;;;0.70;;
53549;SDS011;67273;52.914;-0.982;2023-03-25T14:39:53;1.43;;;0.80;;
53549;SDS011;67273;52.914;-0.982;2023-03-25T14:42:28;0.57;;;0.57;;
53549;SDS011;67273;52.914;-0.982;2023-03-25T14:48:18;2.15;;;0.60;;
53549;SDS011;67273;52.914;-0.982;2023-03-25T14:50:52;1.73;;;0.70;;
53549;SDS011;67273;52.914;-0.982;2023-03-25T14:53:33;1.35;;;0.77;;
53549;SDS011;67273;52.914;-0.982;2023-03-25T14:55:59;1.55;;;0.90;;
53549;SDS011;67273;52.914;-0.982;2023-03-25T14:58:26;1.30;;;0.77;;
53549;SDS011;67273;52.914;-0.982;2023-03-25T15:00:53;0.88;;;0.70;;
53549;SDS011;67273;52.914;-0.982;2023-03-25T15:03:31;2.40;;;0.90;;
53549;SDS011;67273;52.914;-0.982;2023-03-25T15:05:59;0.50;;;0.50;;
53549;SDS011;67273;52.914;-0.982;2023-03-25T15:08:27;1.50;;;0.80;;
53549;SDS011;67273;52.914;-0.982;2023-03-25T15:11:03;0.65;;;0.65;;
53549;SDS011;67273;52.914;-0.982;2023-03-25T15:13:32;1.30;;;0.60;;
53549;SDS011;67273;52.914;-0.982;2023-03-25T15:16:02;1.02;;;0.55;;
53549;SDS011;67273;52.914;-0.982;2023-03-25T15:21:31;0.60;;;0.60;;
53549;SDS011;67273;52.914;-0.982;2023-03-25T15:24:03;1.38;;;0.60;;
53549;SDS011;67273;52.914;-0.982;2023-03-25T15:26:35;0.60;;;0.50;;
53549;SDS011;67273;52.914;-0.982;2023-03-25T15:29:17;0.70;;;0.60;;
53549;SDS011;67273;52.914;-0.982;2023-03-25T15:32:00;1.10;;;0.70;;
53549;SDS011;67273;52.914;-0.982;2023-03-25T15:34:35;0.95;;;0.70;;
53549;SDS011;67273;52.914;-0.982;2023-03-25T15:37:22;0.60;;;0.60;;
53549;SDS011;67273;52.914;-0.982;2023-03-25T15:40:10;0.57;;;0.57;;